Aeroporto :
LOGIN :

Iscrizione | Disclaimer

   EN    FR    IT 

 










Sommario :    VFR   VFR Marginale   IFR   IFR Intensivo   IFR Molto Intensivo
Visibilità : 
Base nubi : 
>= 8 km
>= 3000ft
5 / 8 km
1000 / 3000 ft
1500m / 5 km
500 / 1000 ft
800 / 1500m
200 / 500 ft
< 800m
< 200 ft
Simboli :   Temporali  Nebbia  Neve Forte  Precipitazioni Forti  Vento > 20 kt
SIGMETs :   Varie  Temporali  Ghiacco  Turbolenza  Onda orograficha  Ceneri Vulcaniche







- Altitudine del aeroporto : 82 ft
- Codice IATA : AAR


EKAH - Aarhus Tirstrup

ULTIMO METAR :
  • 160850Z AUTO 22005KT 160V270 9999NDV NCD 08/03 Q1018

METARs OBSOLETI :
  • 160820Z AUTO 20007KT 160V250 9999NDV NCD 06/03 Q1018
  • 160750Z AUTO 21006KT 150V250 9999NDV NCD 05/02 Q1019
  • 160720Z AUTO 21006KT 150V250 9999NDV NCD 05/02 Q1019
  • 160650Z AUTO 20006KT 150V250 9999NDV NCD 05/02 Q1019
  • 160620Z AUTO 20006KT 150V250 9999NDV NCD 05/02 Q1019
  • 160550Z AUTO 20005KT 160V250 9999NDV NCD 05/02 Q1019

TAF TAF EKAH
Valido dal 16 a 06 ore il 17 a 06 ore UTC


160516Z 1606/1706 21006KT CAVOK
BECMG 1608/1611 23016KT
TEMPO 1614/1618 BKN012
BECMG 1616/1618 24006KT
BECMG 1618/1621 4000 BR BKN006
TEMPO 1621/1706 2000 BR BKN003
Nessun NOTAM noto per questo aeroporto.



MetMap, La meteo Aeronautica in un colpo d'occhio ! - Copyright ORBIFLY Dicembre 2007 - Disclaimer

ORBIFLY MET'MAP TEAM :

Programmazione e sviluppo : Alexandra Zaïnal
Concezione e sviluppo : Baudouin d'Aumeries
Co-Programmazione e sviluppo : Marc-Olivier Méhu
Supporto tecnico e logistico : Manuel Goepfert
Aiuto per la traduzione : Arnaldo La Scala

Contatto : metmap@orbifly.com




FONTI E CREDITI :

   NOAA